Buffalo, ND (58011)

5:05 AM CST on February 22, 2017 (GMT -0600)
Home of the Absaraka Crows | | Change Station
Active Advisory: Flood Warning

Elev 1066 ft 46.98 °N, 97.39 °W | Updated 16 seconds ago

Mostly Cloudy
Mostly Cloudy
33.4 °F
Feels Like 26 °F
N
9.8
Wind Variable Wind from NE
Gusts 9.8 mph

Today
High -- | Low -- °F
--% Chance of Precip.
Yesterday
High -- | Low -- °F
Precip. -- in
Pressure 29.66 in
Visibility 10.0 miles
Clouds Few 4500 ft
Overcast 5000 ft
Windchill 26 °F
Dew Point 33 °F
Humidity 99%
Rainfall 0.00 in
Snow Depth Not available.
7:22 AM 6:05 PM
Waning Crescent, 18% visible
METAR KBAC 221055Z AUTO 01008KT 10SM FEW045 OVC050 00/00 A2966 RMK AO2
Pressure 29.66 in
Visibility 10.0 miles
Clouds Few 4500 ft
Overcast 5000 ft
Windchill 26 °F
Dew Point 33 °F
Humidity 99%
Rainfall 0.00 in
Snow Depth Not available.
7:22 AM 6:05 PM
Waning Crescent, 18% visible
METAR KBAC 221055Z AUTO 01008KT 10SM FEW045 OVC050 00/00 A2966 RMK AO2

Get Your Daily Forecast Email!

Thanks for signing up!

Be on the lookout for a verification email in your inbox.

You'll start receiving the daily forecast at 8 AM.

×

10-Day Weather Forecast

Almanac

Astronomy

Feb. 22, 2017 Rise Set
Actual Time
Civil Twilight
Nautical Twilight
Astronomical Twilight
Moon
Length of Visible Light
Length of Day
Tomorrow will be .
, % of the Moon is Illuminated

Today's Extremes

State Highs State Lows

Community

WunderPhotos

Upload Photos

1,962,540 photos uploaded!

WunderBlog® & News

Nearby

Air Quality

  Air Quality AQ Index Pollutant
Not available.

Snow Depth

Station Depth Elevation

Earthquake Activity

City Distance Mag. Time & Date
Minimum magnitude displayed is 2.5.

Coastal Water Temperatures

Place Temperature

Stations

Nearby Weather Stations

Station Location Temp. Windchill Dew Point Humidity Wind Precip. Elev Updated Type
                   

Watches & Warnings

Flood Warning
Issued: 9:27 PM CST Feb. 21, 2017 – National Weather Service

The Flood Warning continues for...
* ... Fargo... on the Red River.
* Until Wednesday March 01... or until the warning is cancelled.
* At 8:15 PM Tuesday the stage was 20.2 feet.
* Minor flooding is occurring and during the next 7 days... minor
flooding is forecast.
* Minor flood stage is 18.0 feet.
* Forecast... the river will rise to a crest near 21.5 feet sometime
Thursday evening. The river will fall below flood stage late
Tuesday morning.
* The river is forecast to crest at 21.5 on Thursday evening during
this 7-day period.
* Impact statement(s) - at 22.0 feet, Fargo... North Broadway bridge is
closed.


Daily 7pm CDT/6pm CST forecast stage in feet:

date Wed Thu Fri Sat sun Mon Tue
(month/day) 02/22 02/23 02/24 02/25 02/26 02/27 02/28
Fargo 21.0 21.5 21.3 20.7 19.8 18.8 17.7
lat... Lon 4715 9673 4724 9683 4724 9694 4676 9689 4677 9671